Time;durP1;ratioP1;P1;durP2;ratioP2;P2;SDS_P1;SDS_P2;PMS_P1;PMS_P2;Temp;Humidity;BMP_temperature;BMP_pressure;BME280_temperature;BME280_humidity;BME280_pressure;Samples;Min_cycle;Max_cycle;Signal;HPM_P1;HPM_P2
2023/02/12 00:02:27;;;;;;;13.52;6.07;;;7.80;99.90;;;;;;4980862;28;20060;-75
2023/02/12 00:04:53;;;;;;;13.93;5.88;;;7.80;99.90;;;;;;4998456;28;20062;-76
2023/02/12 00:07:19;;;;;;;13.52;6.20;;;7.80;99.90;;;;;;4997601;28;20030;-75
2023/02/12 00:09:44;;;;;;;15.18;6.40;;;7.80;99.90;;;;;;4998401;28;20022;-75
2023/02/12 00:12:10;;;;;;;11.88;5.43;;;7.80;99.90;;;;;;4998300;28;20031;-75
2023/02/12 00:14:39;;;;;;;21.05;6.80;;;7.80;99.90;;;;;;4980938;28;20478;-74
2023/02/12 00:17:04;;;;;;;17.20;6.47;;;7.80;99.90;;;;;;4998299;28;20030;-74
2023/02/12 00:19:30;;;;;;;14.38;5.97;;;7.80;99.90;;;;;;4998045;28;20030;-74
2023/02/12 00:21:56;;;;;;;14.93;6.15;;;7.80;99.90;;;;;;4980136;28;20023;-75
2023/02/12 00:24:21;;;;;;;17.38;6.95;;;7.80;99.90;;;;;;4997783;28;20027;-74
2023/02/12 00:26:47;;;;;;;15.07;6.72;;;7.70;99.90;;;;;;4980625;28;20022;-75
2023/02/12 00:29:13;;;;;;;16.30;6.65;;;7.80;99.90;;;;;;4998058;28;20019;-75
2023/02/12 00:31:41;;;;;;;11.68;5.75;;;7.80;99.90;;;;;;4980294;28;20049;-75
2023/02/12 00:34:06;;;;;;;15.38;6.15;;;7.80;99.90;;;;;;4997883;28;20019;-75
2023/02/12 00:36:32;;;;;;;17.23;6.57;;;7.80;99.90;;;;;;4979709;28;20105;-75
2023/02/12 00:38:59;;;;;;;17.35;7.25;;;7.80;99.90;;;;;;4998045;28;20027;-75
2023/02/12 00:41:28;;;;;;;15.25;5.85;;;7.80;99.90;;;;;;4997715;28;20015;-76
2023/02/12 00:43:53;;;;;;;15.10;6.93;;;7.80;99.90;;;;;;4979967;28;20024;-76
2023/02/12 00:46:20;;;;;;;18.58;7.45;;;7.70;99.90;;;;;;4997428;28;20026;-75
2023/02/12 00:48:45;;;;;;;16.58;6.43;;;7.70;99.90;;;;;;4997496;28;20446;-75
2023/02/12 00:51:11;;;;;;;14.55;7.20;;;7.70;99.90;;;;;;4997693;28;20018;-76
2023/02/12 00:53:37;;;;;;;16.98;6.13;;;7.70;99.90;;;;;;4979942;28;20393;-76
2023/02/12 00:56:03;;;;;;;16.42;6.95;;;7.70;99.90;;;;;;4997751;28;20023;-76
2023/02/12 00:58:29;;;;;;;14.10;6.60;;;7.70;99.90;;;;;;4979664;28;20401;-76
2023/02/12 01:00:55;;;;;;;12.75;6.05;;;8.00;99.90;;;;;;4997078;28;20027;-76
2023/02/12 01:03:21;;;;;;;18.42;7.63;;;7.70;99.90;;;;;;4997271;28;20584;-76
2023/02/12 01:05:47;;;;;;;18.88;7.05;;;7.70;99.90;;;;;;4996867;28;20022;-76
2023/02/12 01:08:14;;;;;;;16.33;6.70;;;7.70;99.90;;;;;;4996956;28;20029;-76
2023/02/12 01:10:41;;;;;;;15.23;6.88;;;7.70;99.90;;;;;;4979306;28;20038;-76
2023/02/12 01:13:06;;;;;;;14.15;6.78;;;7.70;99.90;;;;;;4979532;28;20022;-76
2023/02/12 01:15:35;;;;;;;19.17;6.95;;;7.70;99.90;;;;;;4996983;28;20026;-75
2023/02/12 01:18:00;;;;;;;15.18;6.75;;;7.70;99.90;;;;;;4979429;28;20033;-75
2023/02/12 01:20:26;;;;;;;21.08;7.18;;;7.70;99.90;;;;;;4979434;28;20032;-75
2023/02/12 01:22:52;;;;;;;21.58;8.15;;;7.70;99.90;;;;;;4979103;28;20046;-75
2023/02/12 01:25:23;;;;;;;17.67;7.70;;;7.70;99.90;;;;;;4979338;28;20022;-76
2023/02/12 01:27:53;;;;;;;15.25;6.82;;;7.90;99.90;;;;;;4979140;28;20413;-75
2023/02/12 01:30:21;;;;;;;14.70;6.35;;;7.70;99.90;;;;;;4979127;28;20021;-75
2023/02/12 01:32:47;;;;;;;15.93;7.18;;;7.70;99.90;;;;;;4996803;28;20034;-76
2023/02/12 01:35:13;;;;;;;19.05;7.63;;;7.70;99.90;;;;;;4996304;28;20031;-75
2023/02/12 01:37:40;;;;;;;15.85;6.40;;;7.70;99.90;;;;;;4978811;28;20038;-75
2023/02/12 01:40:12;;;;;;;17.70;6.70;;;7.70;99.90;;;;;;4996767;28;20090;-75
2023/02/12 01:42:40;;;;;;;18.25;6.93;;;7.70;99.90;;;;;;4978722;28;20099;-75
2023/02/12 01:45:12;;;;;;;13.50;6.72;;;7.70;99.90;;;;;;4995818;28;20026;-75
2023/02/12 01:47:42;;;;;;;13.73;6.47;;;7.70;99.90;;;;;;4996381;28;20030;-75
2023/02/12 01:50:13;;;;;;;15.15;6.53;;;7.70;99.90;;;;;;4996160;28;20041;-75
2023/02/12 01:52:43;;;;;;;20.05;7.47;;;7.70;99.90;;;;;;4996390;28;20015;-75
2023/02/12 01:55:13;;;;;;;14.60;7.32;;;7.70;99.90;;;;;;4996232;28;20018;-75
2023/02/12 01:57:42;;;;;;;14.27;6.68;;;7.70;99.90;;;;;;4996212;28;20031;-75
2023/02/12 02:00:12;;;;;;;16.90;6.88;;;7.60;99.90;;;;;;4995200;28;20030;-75
2023/02/12 02:02:38;;;;;;;14.88;7.38;;;7.60;99.90;;;;;;4995906;28;20501;-75
2023/02/12 02:05:07;;;;;;;15.68;7.20;;;7.60;99.90;;;;;;4978668;28;20036;-75
2023/02/12 02:07:32;;;;;;;22.23;7.68;;;7.60;99.90;;;;;;4996173;28;20077;-75
2023/02/12 02:10:00;;;;;;;18.67;8.32;;;7.60;99.90;;;;;;4996061;28;20027;-75
2023/02/12 02:15:13;;;;;;;23.98;8.60;;;7.60;99.90;;;;;;4996778;28;20084;-75
2023/02/12 02:17:39;;;;;;;18.50;7.68;;;7.60;99.90;;;;;;4995766;28;20037;-75
2023/02/12 02:20:23;;;;;;;16.30;6.75;;;7.60;99.90;;;;;;4995738;28;20030;-75
2023/02/12 02:23:26;;;;;;;17.45;7.65;;;7.60;99.90;;;;;;5017283;23;20044;-75
2023/02/12 02:26:18;;;;;;;23.98;7.35;;;7.50;99.90;;;;;;5034781;28;20108;-75
2023/02/12 02:29:01;;;;;;;17.45;6.90;;;7.50;99.90;;;;;;5033763;28;20081;-75
2023/02/12 02:31:32;;;;;;;18.80;7.72;;;7.50;99.90;;;;;;5034907;28;20071;-75
2023/02/12 02:34:19;;;;;;;16.95;6.82;;;7.50;99.90;;;;;;5033609;28;20029;-75
2023/02/12 02:36:53;;;;;;;18.60;8.15;;;7.50;99.90;;;;;;5034881;28;20056;-75
2023/02/12 02:39:40;;;;;;;16.77;6.97;;;7.50;99.90;;;;;;5034880;28;20037;-75
2023/02/12 02:42:26;;;;;;;20.42;7.95;;;7.50;99.90;;;;;;5033383;28;20025;-75
2023/02/12 02:44:56;;;;;;;17.60;7.97;;;7.40;99.90;;;;;;5034721;28;20112;-75
2023/02/12 02:47:32;;;;;;;16.02;7.10;;;7.50;99.90;;;;;;5034594;28;20056;-75
2023/02/12 02:50:03;;;;;;;19.65;8.35;;;7.50;99.90;;;;;;5035286;28;20021;-75
2023/02/12 02:52:42;;;;;;;16.77;7.72;;;7.50;99.90;;;;;;5033177;28;20529;-75
2023/02/12 02:55:10;;;;;;;19.23;7.47;;;7.50;99.90;;;;;;5034485;28;20496;-75
2023/02/12 02:57:41;;;;;;;19.70;8.63;;;7.50;99.90;;;;;;5033095;28;20029;-75
2023/02/12 03:00:16;;;;;;;18.23;7.18;;;7.50;99.90;;;;;;5033175;28;20048;-75
2023/02/12 03:02:52;;;;;;;17.27;8.10;;;7.50;99.90;;;;;;5034486;28;20033;-75
2023/02/12 03:05:27;;;;;;;18.48;7.88;;;7.50;99.90;;;;;;5034375;28;20040;-75
2023/02/12 03:08:02;;;;;;;17.80;7.40;;;7.50;99.90;;;;;;5032893;28;20032;-75
2023/02/12 03:10:36;;;;;;;21.02;8.25;;;7.50;99.90;;;;;;5032726;28;20040;-75
2023/02/12 03:13:08;;;;;;;20.65;8.00;;;7.50;99.90;;;;;;5033389;28;20022;-75
2023/02/12 03:15:57;;;;;;;16.10;7.85;;;7.50;99.90;;;;;;5033063;28;20624;-75
2023/02/12 03:18:28;;;;;;;21.33;8.93;;;7.50;99.90;;;;;;5033019;28;20102;-75
2023/02/12 03:21:00;;;;;;;19.25;8.40;;;7.50;99.90;;;;;;5034043;28;20461;-75
2023/02/12 03:23:36;;;;;;;16.30;8.30;;;7.50;99.90;;;;;;5034417;28;20084;-75
2023/02/12 03:26:11;;;;;;;21.13;8.32;;;7.50;99.90;;;;;;5032607;28;20108;-75
2023/02/12 03:28:39;;;;;;;19.55;7.82;;;7.50;99.90;;;;;;5032835;28;20112;-75
2023/02/12 03:31:37;;;;;;;16.70;7.43;;;7.50;99.90;;;;;;5033982;28;20030;-75
2023/02/12 03:34:23;;;;;;;20.90;7.53;;;7.50;99.90;;;;;;5000888;28;20034;-75
2023/02/12 03:36:58;;;;;;;25.48;8.15;;;7.50;99.90;;;;;;5034011;28;20030;-75
2023/02/12 03:40:07;;;;;;;16.92;7.82;;;7.50;99.90;;;;;;5033930;28;20091;-75
2023/02/12 03:42:44;;;;;;;18.25;8.43;;;7.50;99.90;;;;;;5032876;28;20508;-75
2023/02/12 03:45:22;;;;;;;20.60;8.32;;;7.50;99.90;;;;;;5034455;28;20379;-75
2023/02/12 03:48:05;;;;;;;18.85;8.30;;;7.50;99.90;;;;;;5032742;28;20388;-75
2023/02/12 03:51:04;;;;;;;22.17;8.30;;;7.50;99.90;;;;;;5033954;28;20528;-75
2023/02/12 03:53:31;;;;;;;23.80;9.70;;;7.50;99.90;;;;;;5033773;28;20155;-75
2023/02/12 03:56:04;;;;;;;18.73;8.60;;;7.50;99.90;;;;;;5032899;28;20028;-75
2023/02/12 03:58:33;;;;;;;16.42;7.40;;;7.50;99.90;;;;;;5033626;28;20029;-75
2023/02/12 04:01:00;;;;;;;19.75;8.88;;;7.50;99.90;;;;;;5032661;28;20025;-75
2023/02/12 04:03:26;;;;;;;18.23;8.02;;;7.50;99.90;;;;;;5034510;28;20018;-75
2023/02/12 04:05:51;;;;;;;17.92;8.05;;;7.50;99.90;;;;;;5032498;28;20029;-75
2023/02/12 04:08:17;;;;;;;23.27;8.48;;;7.50;99.90;;;;;;5032441;28;20361;-75
2023/02/12 04:11:06;;;;;;;19.17;8.27;;;7.60;99.90;;;;;;5033669;28;20387;-75
2023/02/12 04:13:34;;;;;;;;;;;7.50;99.90;;;;;;5005897;28;20444;-75
2023/02/12 04:16:24;;;;;;;19.30;8.45;;;7.50;99.90;;;;;;5033742;28;19957;-75
2023/02/12 04:18:50;;;;;;;21.38;8.25;;;7.60;99.90;;;;;;5033626;28;20037;-75
2023/02/12 04:21:47;;;;;;;19.35;8.82;;;7.50;99.90;;;;;;5032482;28;20044;-75
2023/02/12 04:24:24;;;;;;;20.80;8.40;;;7.50;99.90;;;;;;5036832;28;20407;-75
2023/02/12 04:26:58;;;;;;;22.00;9.77;;;7.50;99.90;;;;;;5036050;28;20018;-75
2023/02/12 04:29:45;;;;;;;21.02;8.25;;;7.50;99.90;;;;;;5037660;28;20057;-75
2023/02/12 04:32:14;;;;;;;19.58;8.38;;;7.50;99.90;;;;;;5036829;28;20025;-75
2023/02/12 04:35:01;;;;;;;25.45;9.10;;;7.50;99.90;;;;;;5037627;28;20131;-75
2023/02/12 04:37:53;;;;;;;27.63;10.90;;;7.50;99.90;;;;;;5035651;28;20476;-75
2023/02/12 04:40:20;;;;;;;21.08;9.35;;;7.50;99.90;;;;;;5031758;28;20037;-75
2023/02/12 04:42:49;;;;;;;20.40;8.60;;;7.50;99.90;;;;;;5036874;28;20025;-75
2023/02/12 04:45:23;;;;;;;20.63;8.98;;;7.50;99.90;;;;;;5035652;28;20014;-75
2023/02/12 04:47:49;;;;;;;21.13;9.40;;;7.50;99.90;;;;;;5036864;28;20108;-75
2023/02/12 04:50:15;;;;;;;20.65;8.73;;;7.50;99.90;;;;;;5037029;28;20104;-75
2023/02/12 04:52:40;;;;;;;19.15;8.57;;;7.50;99.90;;;;;;5035269;28;20429;-75
2023/02/12 04:55:06;;;;;;;17.65;8.60;;;7.50;99.90;;;;;;5035550;28;20393;-74
2023/02/12 04:57:32;;;;;;;24.17;9.05;;;7.50;99.90;;;;;;5036910;28;20030;-75
2023/02/12 04:59:57;;;;;;;23.27;9.02;;;7.50;99.90;;;;;;5036606;28;20435;-75
2023/02/12 05:02:23;;;;;;;22.27;9.48;;;7.50;99.90;;;;;;5034421;28;20526;-75
2023/02/12 05:04:49;;;;;;;22.02;9.30;;;7.50;99.90;;;;;;5035259;28;20026;-75
2023/02/12 05:07:15;;;;;;;19.05;8.18;;;7.50;99.90;;;;;;5036414;28;20018;-74
2023/02/12 05:09:40;;;;;;;19.63;7.97;;;7.50;99.90;;;;;;5035219;28;20033;-75
2023/02/12 05:12:06;;;;;;;18.90;8.68;;;7.50;99.90;;;;;;5036296;28;20049;-75
2023/02/12 05:14:32;;;;;;;23.45;8.88;;;7.50;99.90;;;;;;5034881;28;20029;-75
2023/02/12 05:16:57;;;;;;;17.77;8.05;;;7.50;99.90;;;;;;5035110;28;20024;-74
2023/02/12 05:19:23;;;;;;;20.88;8.35;;;7.50;99.90;;;;;;5036161;28;20104;-75
2023/02/12 05:21:50;;;;;;;26.60;8.18;;;7.50;99.90;;;;;;5036189;28;20068;-74
2023/02/12 05:24:15;;;;;;;22.70;8.93;;;7.50;99.90;;;;;;5035764;28;20038;-75
2023/02/12 05:26:41;;;;;;;22.70;8.27;;;7.50;99.90;;;;;;5034819;28;20036;-75
2023/02/12 05:29:07;;;;;;;16.42;7.55;;;7.40;99.90;;;;;;5034806;28;20017;-75
2023/02/12 05:31:32;;;;;;;21.08;8.48;;;7.50;99.90;;;;;;5034102;28;20361;-75
2023/02/12 05:34:13;;;;;;;16.98;8.10;;;7.50;99.90;;;;;;5033533;28;20032;-76
2023/02/12 05:36:39;;;;;;;21.80;9.02;;;7.70;99.90;;;;;;5034070;28;20025;-76
2023/02/12 05:39:06;;;;;;;23.52;9.07;;;7.50;99.90;;;;;;5034601;28;20021;-76
2023/02/12 05:41:35;;;;;;;23.55;8.18;;;7.40;99.90;;;;;;5034366;28;20473;-76
2023/02/12 05:44:04;;;;;;;16.50;7.90;;;7.40;99.90;;;;;;5035726;28;20412;-75
2023/02/12 05:46:30;;;;;;;19.85;8.23;;;7.40;99.90;;;;;;5035664;28;20026;-76
2023/02/12 05:48:55;;;;;;;18.17;8.63;;;7.40;99.90;;;;;;5034405;28;20032;-75
2023/02/12 05:51:24;;;;;;;18.40;7.97;;;7.40;99.90;;;;;;5034170;28;20396;-75
2023/02/12 05:53:52;;;;;;;16.15;7.60;;;7.40;99.90;;;;;;5034003;28;20032;-75
2023/02/12 05:56:19;;;;;;;21.00;8.38;;;7.40;99.90;;;;;;5034402;28;20036;-76
2023/02/12 05:58:47;;;;;;;17.98;8.20;;;7.40;99.90;;;;;;5035298;28;20480;-75
2023/02/12 06:01:21;;;;;;;17.80;8.55;;;7.40;99.90;;;;;;5034024;28;20029;-75
2023/02/12 06:03:47;;;;;;;21.92;9.35;;;7.30;99.90;;;;;;5035226;28;20022;-76
2023/02/12 06:06:13;;;;;;;17.08;8.45;;;7.30;99.90;;;;;;5035267;28;20032;-75
2023/02/12 06:08:39;;;;;;;20.55;8.75;;;7.30;99.90;;;;;;5033821;28;20022;-76
2023/02/12 06:11:10;;;;;;;19.70;8.70;;;7.40;99.90;;;;;;5034415;28;20064;-76
2023/02/12 06:13:35;;;;;;;20.85;8.70;;;7.40;99.90;;;;;;5034715;28;20025;-76
2023/02/12 06:16:01;;;;;;;20.88;9.27;;;7.40;99.90;;;;;;5035084;28;20396;-76
2023/02/12 06:18:30;;;;;;;16.80;8.55;;;7.40;99.90;;;;;;5035668;28;20026;-75
2023/02/12 06:20:56;;;;;;;17.88;8.07;;;7.40;99.90;;;;;;5034102;28;20044;-76
2023/02/12 06:23:23;;;;;;;19.15;7.97;;;7.30;99.90;;;;;;5033519;28;20041;-75
2023/02/12 06:25:50;;;;;;;19.42;8.25;;;7.40;99.90;;;;;;5034899;28;20108;-76
2023/02/12 06:28:16;;;;;;;18.05;7.97;;;7.30;99.90;;;;;;5034794;28;20028;-75
2023/02/12 06:30:42;;;;;;;19.13;7.85;;;7.30;99.90;;;;;;5033588;28;20025;-76
2023/02/12 06:33:07;;;;;;;15.68;7.70;;;7.30;99.90;;;;;;5035063;28;20456;-76
2023/02/12 06:35:37;;;;;;;16.13;7.57;;;7.30;99.90;;;;;;5033562;28;20048;-76
2023/02/12 06:38:03;;;;;;;16.83;7.82;;;7.30;99.90;;;;;;5033450;28;20029;-76
2023/02/12 06:40:29;;;;;;;14.32;7.70;;;7.20;99.90;;;;;;5033499;28;20056;-76
2023/02/12 06:42:55;;;;;;;16.38;7.85;;;7.40;99.90;;;;;;5034591;28;20064;-76
2023/02/12 06:45:20;;;;;;;16.75;7.93;;;7.30;99.90;;;;;;5032306;28;20488;-75
2023/02/12 06:47:46;;;;;;;15.35;7.30;;;7.40;99.90;;;;;;5034470;28;20024;-75
2023/02/12 06:50:15;;;;;;;18.60;8.23;;;7.30;99.90;;;;;;5034448;28;20053;-76
2023/02/12 06:52:40;;;;;;;;;;;7.30;99.90;;;;;;5035068;28;20483;-75
2023/02/12 06:55:06;;;;;;;18.52;7.20;;;7.30;99.90;;;;;;5034629;28;19931;-76
2023/02/12 06:57:32;;;;;;;16.30;7.53;;;7.40;99.90;;;;;;5034543;28;20032;-75
2023/02/12 06:59:57;;;;;;;16.73;7.90;;;7.40;99.90;;;;;;5034092;28;20025;-75
2023/02/12 07:02:23;;;;;;;14.55;7.50;;;7.40;99.90;;;;;;5032919;28;20028;-76
2023/02/12 07:04:48;;;;;;;17.20;7.40;;;7.30;99.90;;;;;;5034222;28;20037;-76
2023/02/12 07:07:14;;;;;;;16.23;7.32;;;7.30;99.90;;;;;;5033134;28;20053;-76
2023/02/12 07:09:40;;;;;;;14.00;6.82;;;7.30;99.90;;;;;;5033881;28;20026;-75
2023/02/12 07:12:05;;;;;;;18.08;8.18;;;7.30;99.90;;;;;;5032884;28;20040;-75
2023/02/12 07:14:31;;;;;;;14.95;7.03;;;7.30;99.90;;;;;;5033111;28;20025;-76
2023/02/12 07:16:57;;;;;;;14.65;7.32;;;7.30;99.90;;;;;;5032119;28;20068;-75
2023/02/12 07:19:22;;;;;;;16.13;7.70;;;7.30;99.90;;;;;;5032922;28;20025;-75
2023/02/12 07:21:48;;;;;;;14.85;7.63;;;7.30;99.90;;;;;;5032837;28;20540;-75
2023/02/12 07:24:14;;;;;;;12.73;6.75;;;7.30;99.90;;;;;;5032746;28;20036;-76
2023/02/12 07:26:40;;;;;;;15.75;7.53;;;7.30;99.90;;;;;;5032990;28;20105;-76
2023/02/12 07:29:07;;;;;;;16.20;7.15;;;7.50;99.90;;;;;;5033969;28;20068;-76
2023/02/12 07:31:32;;;;;;;13.88;6.72;;;7.40;99.90;;;;;;5033842;28;20032;-76
2023/02/12 07:33:59;;;;;;;15.70;7.07;;;7.40;99.90;;;;;;5032763;28;20021;-75
2023/02/12 07:36:28;;;;;;;19.50;7.13;;;7.50;99.90;;;;;;5032681;28;20025;-76
2023/02/12 07:38:54;;;;;;;;;;;7.50;99.90;;;;;;5034395;28;20079;-75
2023/02/12 07:41:25;;;;;;;13.50;6.82;;;7.50;99.90;;;;;;5033825;28;20003;-75
2023/02/12 07:43:59;;;;;;;14.95;7.47;;;7.50;99.90;;;;;;5033868;28;20026;-76
2023/02/12 07:46:30;;;;;;;19.58;8.07;;;7.50;99.90;;;;;;5032689;28;20108;-76
2023/02/12 07:48:57;;;;;;;13.48;7.00;;;7.50;99.90;;;;;;5034347;28;20049;-76
2023/02/12 07:51:24;;;;;;;16.00;7.43;;;7.60;99.90;;;;;;5031923;28;20067;-75
2023/02/12 07:53:50;;;;;;;16.13;7.78;;;7.60;99.90;;;;;;5033495;28;20400;-76
2023/02/12 07:56:20;;;;;;;15.25;7.07;;;7.60;99.90;;;;;;5032739;28;20026;-76
2023/02/12 07:58:47;;;;;;;14.85;7.45;;;7.60;99.90;;;;;;5037047;28;20026;-76
2023/02/12 08:01:28;;;;;;;18.90;7.53;;;7.60;99.90;;;;;;5037272;28;20026;-76
2023/02/12 08:03:58;;;;;;;15.57;7.60;;;7.70;99.90;;;;;;5037768;28;20056;-76
2023/02/12 08:06:27;;;;;;;14.82;7.13;;;7.70;99.90;;;;;;5036212;28;20033;-76
2023/02/12 08:08:53;;;;;;;;;;;7.60;99.90;;;;;;5038046;28;20026;-76
2023/02/12 08:11:20;;;;;;;16.67;8.10;;;7.80;99.90;;;;;;5037372;28;19916;-76
2023/02/12 08:13:46;;;;;;;15.55;7.43;;;7.70;99.90;;;;;;5036129;28;20017;-76
2023/02/12 08:16:16;;;;;;;15.10;7.07;;;7.70;99.90;;;;;;5037537;28;20026;-76
2023/02/12 08:18:42;;;;;;;14.18;7.20;;;7.70;99.90;;;;;;5036268;28;20112;-76
2023/02/12 08:21:13;;;;;;;13.18;6.78;;;7.70;99.90;;;;;;5036168;28;20032;-76
2023/02/12 08:23:39;;;;;;;17.90;8.15;;;7.70;99.90;;;;;;5036053;28;20522;-76
2023/02/12 08:26:13;;;;;;;15.27;7.22;;;7.70;99.90;;;;;;5036984;28;20097;-76
2023/02/12 08:28:42;;;;;;;16.20;7.72;;;7.70;99.90;;;;;;5036013;28;20022;-76
2023/02/12 08:31:14;;;;;;;17.35;7.72;;;7.80;99.90;;;;;;5037223;28;20044;-75
2023/02/12 08:33:40;;;;;;;16.52;7.00;;;7.80;99.90;;;;;;5036620;28;20026;-75
2023/02/12 08:36:09;;;;;;;16.10;7.25;;;7.80;99.90;;;;;;5036546;28;20455;-75
2023/02/12 08:38:35;;;;;;;16.35;6.82;;;7.80;99.90;;;;;;5035535;28;20036;-76
2023/02/12 08:41:06;;;;;;;15.20;6.78;;;7.80;99.90;;;;;;5036680;28;20373;-76
2023/02/12 08:43:32;;;;;;;13.85;6.60;;;7.90;99.90;;;;;;5036796;28;20515;-76
2023/02/12 08:46:06;;;;;;;14.00;6.75;;;7.90;99.90;;;;;;5037194;28;20029;-76
2023/02/12 08:48:31;;;;;;;13.43;6.75;;;7.90;99.90;;;;;;5036961;28;20025;-76
2023/02/12 08:51:08;;;;;;;16.10;7.22;;;7.90;99.90;;;;;;5035435;28;20494;-76
2023/02/12 08:53:34;;;;;;;13.45;7.43;;;7.90;99.90;;;;;;5036839;28;20021;-76
2023/02/12 08:56:00;;;;;;;14.73;7.15;;;7.90;99.90;;;;;;5035294;28;20017;-76
2023/02/12 08:58:25;;;;;;;15.95;7.47;;;7.90;99.90;;;;;;5035380;28;20070;-76
2023/02/12 09:00:51;;;;;;;14.23;6.53;;;8.00;99.90;;;;;;5035358;28;20029;-76
2023/02/12 09:03:17;;;;;;;16.80;6.35;;;8.00;99.90;;;;;;5036248;28;20018;-76
2023/02/12 09:05:42;;;;;;;14.85;6.93;;;8.00;99.90;;;;;;5036378;28;20026;-75
2023/02/12 09:08:08;;;;;;;19.50;8.10;;;8.00;99.90;;;;;;5036451;28;20049;-75
2023/02/12 09:10:39;;;;;;;15.80;7.03;;;8.10;99.90;;;;;;5034633;28;20022;-75
2023/02/12 09:13:05;;;;;;;14.55;6.93;;;8.00;99.90;;;;;;5035271;28;20021;-75
2023/02/12 09:15:31;;;;;;;14.93;6.82;;;8.00;99.90;;;;;;5036762;28;20127;-75
2023/02/12 09:17:56;;;;;;;13.55;6.88;;;8.00;99.90;;;;;;5036290;28;20041;-75
2023/02/12 09:20:25;;;;;;;14.48;7.00;;;8.40;99.90;;;;;;5034889;28;20492;-76
2023/02/12 09:22:52;;;;;;;14.60;6.82;;;8.10;99.90;;;;;;5034648;28;20040;-75
2023/02/12 09:25:18;;;;;;;14.68;6.25;;;8.10;99.90;;;;;;5034877;28;20064;-75
2023/02/12 09:27:44;;;;;;;14.68;6.38;;;8.20;99.90;;;;;;5035876;28;20384;-76
2023/02/12 09:30:10;;;;;;;13.10;6.30;;;8.20;99.90;;;;;;5032499;28;20033;-76
2023/02/12 09:32:35;;;;;;;13.13;6.35;;;8.20;99.90;;;;;;5035582;28;20481;-76
2023/02/12 09:35:01;;;;;;;11.20;5.63;;;8.30;99.90;;;;;;5034352;28;20037;-76
2023/02/12 09:37:26;;;;;;;12.18;6.13;;;8.30;99.90;;;;;;5033972;28;20048;-76
2023/02/12 09:39:52;;;;;;;13.00;6.60;;;8.30;99.90;;;;;;5034188;28;20025;-76
2023/02/12 09:43:01;;;;;;;14.20;6.88;;;8.90;99.90;;;;;;5033756;28;20029;-76
2023/02/12 09:45:33;;;;;;;14.65;7.55;;;8.30;99.90;;;;;;5033664;28;20030;-76
2023/02/12 09:48:05;;;;;;;13.55;6.53;;;8.10;99.90;;;;;;5035388;28;20032;-76
2023/02/12 09:50:42;;;;;;;12.35;5.78;;;8.40;99.90;;;;;;5035247;28;20488;-76
2023/02/12 09:53:15;;;;;;;13.82;6.07;;;8.40;99.90;;;;;;5033922;28;20022;-76
2023/02/12 09:55:40;;;;;;;13.57;5.95;;;8.50;99.90;;;;;;5035243;28;20021;-76
2023/02/12 09:58:16;;;;;;;13.93;6.70;;;8.50;99.90;;;;;;5034513;28;20490;-76
2023/02/12 10:00:42;;;;;;;15.75;6.90;;;8.50;99.90;;;;;;5034179;28;20030;-75
2023/02/12 10:03:14;;;;;;;13.05;6.45;;;8.60;99.90;;;;;;5033520;28;20018;-76
2023/02/12 10:05:42;;;;;;;13.82;5.90;;;8.60;99.90;;;;;;5035011;28;20459;-76
2023/02/12 10:08:26;;;;;;;13.25;6.38;;;8.70;99.90;;;;;;5033913;28;20439;-76
2023/02/12 10:11:10;;;;;;;13.68;6.90;;;8.70;99.90;;;;;;5035166;28;20056;-76
2023/02/12 10:13:47;;;;;;;14.90;6.32;;;8.70;99.90;;;;;;5034705;28;20120;-75
2023/02/12 10:16:18;;;;;;;16.17;6.57;;;8.80;99.90;;;;;;5033482;28;20026;-76
2023/02/12 10:19:43;;;;;;;18.33;7.30;;;8.80;99.90;;;;;;5033452;28;20569;-75
2023/02/12 10:22:26;;;;;;;14.02;7.18;;;8.80;99.90;;;;;;4954445;29;20106;-75
2023/02/12 10:25:11;;;;;;;11.95;6.75;;;8.80;99.90;;;;;;5034553;28;20084;-76
2023/02/12 10:27:41;;;;;;;13.98;6.60;;;8.80;99.90;;;;;;5034360;28;20433;-76
2023/02/12 10:30:20;;;;;;;17.90;6.95;;;8.90;99.90;;;;;;5034709;28;20037;-76
2023/02/12 10:32:50;;;;;;;18.27;7.63;;;8.90;99.90;;;;;;5034928;28;20045;-76
2023/02/12 10:35:17;;;;;;;14.23;7.03;;;9.00;99.90;;;;;;5034382;28;20072;-76
2023/02/12 10:38:07;;;;;;;14.98;7.25;;;9.00;99.90;;;;;;5032362;28;20049;-76
2023/02/12 10:40:37;;;;;;;14.25;6.93;;;9.00;99.90;;;;;;5033114;28;20040;-76
2023/02/12 10:43:02;;;;;;;16.73;7.38;;;9.00;99.90;;;;;;5032893;28;20033;-76
2023/02/12 10:45:29;;;;;;;16.40;7.32;;;9.00;99.90;;;;;;5033821;28;20095;-76
2023/02/12 10:48:06;;;;;;;15.35;7.57;;;9.10;99.90;;;;;;5034610;28;20026;-76
2023/02/12 10:50:52;;;;;;;16.50;6.85;;;9.10;99.90;;;;;;5034247;28;20104;-76
2023/02/12 10:53:24;;;;;;;13.57;6.82;;;9.10;99.90;;;;;;5034501;28;20044;-76
2023/02/12 10:56:16;;;;;;;15.70;7.18;;;9.10;99.90;;;;;;5032993;28;20484;-76
2023/02/12 10:58:58;;;;;;;16.70;6.97;;;9.10;99.90;;;;;;5033724;28;20109;-76
2023/02/12 11:01:29;;;;;;;18.25;8.57;;;9.20;99.90;;;;;;5032215;28;20033;-76
2023/02/12 11:03:58;;;;;;;17.48;7.53;;;9.20;99.90;;;;;;5033850;28;20048;-76
2023/02/12 11:06:26;;;;;;;15.98;7.28;;;9.30;99.90;;;;;;5032851;28;20022;-76
2023/02/12 11:08:53;;;;;;;17.67;8.45;;;9.20;99.90;;;;;;5033069;28;20481;-76
2023/02/12 11:11:25;;;;;;;16.63;8.32;;;9.20;99.90;;;;;;5033833;28;20389;-76
2023/02/12 11:14:06;;;;;;;18.95;7.60;;;9.20;99.90;;;;;;5032694;28;20029;-76
2023/02/12 11:16:35;;;;;;;15.10;7.50;;;9.20;99.90;;;;;;5034384;28;20038;-76
2023/02/12 11:19:04;;;;;;;15.20;7.13;;;9.20;99.90;;;;;;5033929;28;20018;-76
2023/02/12 11:21:30;;;;;;;;;;;9.30;99.90;;;;;;5034043;28;20037;-76
2023/02/12 11:23:56;;;;;;;17.45;7.25;;;9.30;99.90;;;;;;5033499;28;19920;-76
2023/02/12 11:26:29;;;;;;;20.17;8.00;;;9.40;99.90;;;;;;5033711;28;20477;-76
2023/02/12 11:28:58;;;;;;;18.10;7.68;;;9.40;99.90;;;;;;5033932;28;20033;-76
2023/02/12 11:31:30;;;;;;;19.05;8.45;;;9.40;99.90;;;;;;5032812;28;20543;-76
2023/02/12 11:34:11;;;;;;;18.75;7.95;;;9.40;99.90;;;;;;5037020;28;20018;-76
2023/02/12 11:36:46;;;;;;;16.88;8.20;;;9.40;99.90;;;;;;5036418;28;20040;-76
2023/02/12 11:39:27;;;;;;;14.70;7.47;;;10.10;99.90;;;;;;5036495;28;20029;-76
2023/02/12 11:42:00;;;;;;;13.45;6.40;;;9.40;99.90;;;;;;5037765;28;20120;-76
2023/02/12 11:44:38;;;;;;;15.73;6.90;;;9.40;99.90;;;;;;5037415;28;20029;-76
2023/02/12 11:47:08;;;;;;;13.43;6.57;;;9.30;99.90;;;;;;5036515;28;20056;-76
2023/02/12 11:49:51;;;;;;;16.65;7.75;;;9.30;99.90;;;;;;5037526;28;20127;-77
2023/02/12 11:52:30;;;;;;;17.35;7.45;;;9.30;99.90;;;;;;5036403;28;20022;-76
2023/02/12 11:55:23;;;;;;;15.48;7.45;;;9.30;99.90;;;;;;5036209;28;20032;-77
2023/02/12 11:58:19;;;;;;;13.73;6.38;;;9.20;99.90;;;;;;5037651;28;20017;-77
2023/02/12 12:01:08;;;;;;;15.70;7.20;;;9.20;99.90;;;;;;5033126;28;20047;-76
2023/02/12 12:03:45;;;;;;;17.25;7.72;;;9.20;99.90;;;;;;5036264;28;20018;-77
2023/02/12 12:06:30;;;;;;;14.43;6.82;;;9.20;99.90;;;;;;5034148;28;20051;-77
2023/02/12 12:09:28;;;;;;;14.50;6.82;;;9.20;99.90;;;;;;5037179;28;20527;-77
2023/02/12 12:12:24;;;;;;;14.40;7.70;;;9.20;99.90;;;;;;5037409;28;20110;-77
2023/02/12 12:21:21;;;;;;;17.15;7.60;;;9.30;99.90;;;;;;5037052;28;20041;-76
2023/02/12 12:24:01;;;;;;;14.25;6.22;;;9.20;99.90;;;;;;5035643;28;20041;-76
2023/02/12 12:26:33;;;;;;;12.10;6.50;;;9.20;99.90;;;;;;5037058;28;20446;-75
2023/02/12 12:29:27;;;;;;;12.77;6.85;;;9.20;99.90;;;;;;5036712;28;20021;-77
2023/02/12 12:31:59;;;;;;;14.68;5.75;;;9.20;99.90;;;;;;5036692;28;20077;-75
2023/02/12 12:34:26;;;;;;;15.52;6.53;;;9.20;99.90;;;;;;5036941;28;20022;-75
2023/02/12 12:37:13;;;;;;;22.80;7.82;;;9.20;99.90;;;;;;5035397;28;20116;-75
2023/02/12 12:39:51;;;;;;;13.80;6.60;;;9.30;99.90;;;;;;5037257;28;20443;-75
2023/02/12 12:42:44;;;;;;;12.60;6.53;;;9.30;99.90;;;;;;5035226;28;20432;-75
2023/02/12 12:45:22;;;;;;;15.00;6.90;;;9.30;99.90;;;;;;5036048;28;20507;-75
2023/02/12 12:48:21;;;;;;;14.13;6.97;;;9.30;99.90;;;;;;5036898;28;20022;-75
2023/02/12 12:50:50;;;;;;;13.57;7.05;;;9.40;99.90;;;;;;5036357;28;20440;-75
2023/02/12 12:53:49;;;;;;;16.65;5.95;;;9.40;99.90;;;;;;5036317;28;20052;-75
2023/02/12 12:56:42;;;;;;;12.15;6.60;;;9.40;99.90;;;;;;5035007;28;20124;-75
2023/02/12 12:59:31;;;;;;;14.32;6.72;;;9.40;99.90;;;;;;5035178;28;20396;-75
2023/02/12 13:02:24;;;;;;;14.55;6.80;;;9.40;99.90;;;;;;5036099;28;20036;-75
2023/02/12 13:05:27;;;;;;;12.38;5.90;;;9.40;99.90;;;;;;5036200;28;20064;-75
2023/02/12 13:08:04;;;;;;;13.85;6.50;;;9.40;99.90;;;;;;5035953;28;20056;-75
2023/02/12 13:10:34;;;;;;;12.38;5.93;;;9.40;99.90;;;;;;5036149;28;20026;-75
2023/02/12 13:13:19;;;;;;;12.15;6.15;;;9.40;99.90;;;;;;5035883;28;20101;-75
2023/02/12 13:16:10;;;;;;;12.55;6.15;;;9.40;99.90;;;;;;5034772;28;20021;-75
2023/02/12 13:18:46;;;;;;;11.95;5.85;;;9.40;99.90;;;;;;5036432;28;20022;-75
2023/02/12 13:21:37;;;;;;;11.27;5.63;;;9.50;99.90;;;;;;5036034;28;20105;-76
2023/02/12 13:24:19;;;;;;;13.23;6.72;;;9.50;99.90;;;;;;5036055;28;20435;-74